Flight Track Log - Related Links

Times and Time Zones

All times are in EDT time to prevent confusion due to time zone crossing. See the EJA396 flight status page for this flight to view local times or setup timezone preferences in your user account.

Time Position Orientation Groundspeed Altitude Reporting Facility
EDT Latitude Longitude Course Direction KTS MPH feet Rate Location/Type
Sun 10:27:39 AM 31.8394 -102.1083 263° West 299 344 11,300  Level Fort Worth Center
Sun 10:28:39 AM 31.8394 -102.2183 270° West 234 269 15,000 3,450 Climbing Fort Worth Center
Sun 10:29:39 AM 31.8456 -102.3311 274° West 271 312 18,200 3,100 Climbing Fort Worth Center
Sun 10:30:39 AM 31.8494 -102.4486 272° West 324 373 21,200 2,950 Climbing Fort Worth Center
Sun 10:31:00 AM 31.9145 -102.8644 260° West  Level FlightAware Approximate
Sun 10:31:39 AM 31.8614 -102.5667 277° West 352 405 24,100  Level Fort Worth Center
Sun 10:32:00 AM 31.8975 -102.9750 260° West  Level FlightAware Approximate
Sun 10:32:39 AM 31.8858 -102.6806 284° West 357 411 26,500  Level Fort Worth Center
Sun 10:33:00 AM 31.8812 -103.0857 263° West  Level FlightAware Approximate
Sun 10:33:39 AM 31.9100 -102.7994 283° West 368 423 28,400  Level Fort Worth Center
Sun 10:34:39 AM 31.9319 -102.9158 283° West 386 444 30,100 1,600 Climbing Fort Worth Center
Sun 10:35:39 AM 31.9558 -103.0369 283° West 392 451 31,600 1,510 Climbing Fort Worth Center
Sun 10:37:06 AM 31.9911 -103.2253 283° West 393 452 33,800 1,703 Climbing Albuquerque Center
Sun 10:38:07 AM 32.0136 -103.3464 282° West 384 442 35,800 1,951 Climbing Albuquerque Center
Sun 10:39:09 AM 32.0364 -103.4639 283° West 373 429 37,800 1,805 Climbing Albuquerque Center
Sun 10:40:10 AM 32.0569 -103.5733 283° West 351 404 39,500 1,512 Climbing Albuquerque Center
Sun 10:41:12 AM 32.0769 -103.6800 283° West 338 389 40,900 1,161 Climbing Albuquerque Center
Sun 10:42:14 AM 32.0986 -103.7853 284° West 332 382 41,900 829 Climbing Albuquerque Center
Sun 10:43:15 AM 32.1200 -103.8928 283° West 335 386 42,600 537 Climbing Albuquerque Center
Sun 10:44:17 AM 32.1392 -103.9986 282° West 333 383 43,000 195 Climbing Albuquerque Center
Sun 10:45:18 AM 32.1606 -104.1217 282° West 340 391 43,000  Level Albuquerque Center
Sun 10:46:20 AM 32.1814 -104.2344 282° West 348 400 43,000  Level Albuquerque Center
Sun 10:47:21 AM 32.2033 -104.3494 283° West 357 411 43,000  Level Albuquerque Center
Sun 10:48:23 AM 32.2242 -104.4631 282° West 358 412 43,000  Level Albuquerque Center
Sun 10:49:25 AM 32.2486 -104.6008 282° West 358 412 43,000  Level Albuquerque Center
Sun 10:50:26 AM 32.2700 -104.7142 283° West 356 410 43,000  Level Albuquerque Center
Sun 10:51:28 AM 32.2908 -104.8306 282° West 359 413 43,000  Level Albuquerque Center
Sun 10:52:29 AM 32.3111 -104.9483 282° West 365 420 43,000  Level Albuquerque Center
Sun 10:53:31 AM 32.3331 -105.0653 283° West 366 421 43,000  Level Albuquerque Center
Sun 10:54:33 AM 32.3536 -105.1819 282° West 366 421 43,000  Level Albuquerque Center
Sun 10:55:34 AM 32.3733 -105.3017 281° West 368 423 43,000  Level Albuquerque Center
Sun 10:56:36 AM 32.3981 -105.4417 282° West 366 421 43,000  Level Albuquerque Center
Sun 10:57:37 AM 32.4178 -105.5575 281° West 362 417 43,000  Level Albuquerque Center
Sun 10:58:39 AM 32.4386 -105.6739 282° West 363 418 43,000  Level Albuquerque Center
Sun 10:59:41 AM 32.4589 -105.7919 282° West 366 421 43,000  Level Albuquerque Center
Sun 11:00:42 AM 32.4792 -105.9106 281° West 369 425 43,000  Level Albuquerque Center
Sun 11:01:44 AM 32.4989 -106.0261 281° West 361 415 43,000  Level Albuquerque Center
Sun 11:02:46 AM 32.5183 -106.1442 281° West 365 420 43,000  Level Albuquerque Center
Sun 11:03:47 AM 32.5406 -106.2742 281° West 367 422 43,000  Level Albuquerque Center
Sun 11:04:49 AM 32.5600 -106.3914 281° West 365 420 43,000  Level Albuquerque Center
Sun 11:05:51 AM 32.5792 -106.5075 281° West 362 417 43,000  Level Albuquerque Center
Sun 11:06:52 AM 32.6022 -106.6456 281° West 358 412 43,000  Level Albuquerque Center
Sun 11:07:54 AM 32.6208 -106.7614 281° West 360 414 43,000  Level Albuquerque Center
Sun 11:08:56 AM 32.6386 -106.8725 281° West 361 415 43,000  Level Albuquerque Center
Sun 11:09:57 AM 32.6572 -106.9822 281° West 359 413 43,000  Level Albuquerque Center
Sun 11:10:59 AM 32.6789 -107.1219 280° West 359 413 43,000  Level Albuquerque Center
Sun 11:12:01 AM 32.6947 -107.2281 280° West 357 411 43,000  Level Albuquerque Center
Sun 11:13:03 AM 32.7158 -107.3578 281° West 359 413 43,000  Level Albuquerque Center
Sun 11:14:04 AM 32.7339 -107.4736 281° West 360 414 43,000  Level Albuquerque Center
Sun 11:15:06 AM 32.7511 -107.5883 280° West 357 411 43,000  Level Albuquerque Center
Sun 11:16:08 AM 32.7692 -107.7042 281° West 358 412 43,000  Level Albuquerque Center
Sun 11:17:10 AM 32.7869 -107.8219 280° West 362 417 43,000  Level Albuquerque Center
Sun 11:18:11 AM 32.8094 -107.9636 281° West 365 420 43,000  Level Albuquerque Center
Sun 11:19:13 AM 32.8267 -108.0831 280° West 366 421 43,000  Level Albuquerque Center
Sun 11:20:15 AM 32.8461 -108.2067 281° West 366 421 43,000  Level Albuquerque Center
Sun 11:21:17 AM 32.8647 -108.3244 281° West 366 421 43,000  Level Albuquerque Center
Sun 11:22:18 AM 32.8828 -108.4436 280° West 368 423 43,000  Level Albuquerque Center
Sun 11:23:20 AM 32.9003 -108.5625 280° West 369 425 43,000  Level Albuquerque Center
Sun 11:24:22 AM 32.9178 -108.6817 280° West 368 423 43,000 -48 Level Albuquerque Center
Sun 11:25:24 AM 32.9386 -108.8256 280° West 378 435 42,900  Descending Albuquerque Center
Sun 11:26:25 AM 32.9564 -108.9461 280° West 371 427 43,000 49 Climbing Albuquerque Center
Sun 11:27:27 AM 32.9733 -109.0625 280° West 362 417 43,000  Level Albuquerque Center
Sun 11:28:29 AM 32.9925 -109.1936 280° West 367 422 43,000  Level Albuquerque Center
Sun 11:29:31 AM 33.0092 -109.3114 280° West 365 420 43,000  Level Albuquerque Center
Sun 11:30:32 AM 33.0258 -109.4308 279° West 367 422 43,000  Level Albuquerque Center
Sun 11:31:34 AM 33.0414 -109.5489 279° West 365 420 43,000  Level Albuquerque Center
Sun 11:32:36 AM 33.0581 -109.6664 280° West 363 418 43,000  Level Albuquerque Center
Sun 11:33:37 AM 33.0742 -109.7839 279° West 362 417 43,000  Level Albuquerque Center
Sun 11:34:39 AM 33.0942 -109.9247 280° West 362 417 43,000  Level Albuquerque Center
Sun 11:35:41 AM 33.1092 -110.0439 279° West 365 420 43,000  Level Albuquerque Center
Sun 11:36:42 AM 33.1297 -110.1647 282° West 371 427 43,000  Level Albuquerque Center
Sun 11:37:44 AM 33.1450 -110.2847 279° West 369 425 43,000  Level Albuquerque Center
Sun 11:38:46 AM 33.1606 -110.4031 279° West 366 421 43,000  Level Albuquerque Center
Sun 11:39:47 AM 33.1769 -110.5236 279° West 369 425 43,000  Level Albuquerque Center
Sun 11:40:49 AM 33.1953 -110.6681 279° West 370 426 43,000  Level Albuquerque Center
Sun 11:41:51 AM 33.2094 -110.7753 279° West 366 421 43,000  Level Albuquerque Center
Sun 11:42:52 AM 33.2244 -110.8958 278° West 366 421 43,000  Level Albuquerque Center
Sun 11:43:54 AM 33.2431 -111.0400 279° West 366 421 43,000  Level Albuquerque Center
Sun 11:44:56 AM 33.2592 -111.1617 279° West 370 426 43,000  Level Albuquerque Center
Sun 11:45:57 AM 33.2733 -111.2833 278° West 371 427 43,000  Level Albuquerque Center
Sun 11:46:59 AM 33.2881 -111.4053 278° West 370 426 43,000  Level Albuquerque Center
Sun 11:48:00 AM 33.3031 -111.5269 278° West 370 426 43,000  Level Albuquerque Center
Sun 11:49:02 AM 33.3175 -111.6500 278° West 371 427 43,000  Level Albuquerque Center
Sun 11:50:04 AM 33.3328 -111.7739 278° West 375 432 43,000  Level Albuquerque Center
Sun 11:51:05 AM 33.3467 -111.8969 278° West 374 430 43,000  Level Albuquerque Center
Sun 11:52:07 AM 33.3614 -112.0197 278° West 372 428 43,000  Level Albuquerque Center
Sun 11:53:08 AM 33.3794 -112.1681 278° West 374 430 43,000  Level Albuquerque Center
Sun 11:54:10 AM 33.3928 -112.2917 277° West 374 430 43,000  Level Albuquerque Center
Sun 11:55:12 AM 33.4069 -112.4144 278° West 373 429 43,000  Level Albuquerque Center
Sun 11:56:13 AM 33.4211 -112.5364 278° West 371 427 43,000  Level Albuquerque Center
Sun 11:57:15 AM 33.4367 -112.6672 278° West 370 426 43,000  Level Albuquerque Center
Sun 11:58:16 AM 33.4489 -112.7881 277° West 369 425 43,000  Level Albuquerque Center
Sun 11:59:18 AM 33.4708 -112.9089 282° West 371 427 43,000 -194 Level Albuquerque Center
Sun 12:00:20 PM 33.4933 -113.0294 283° West 372 428 42,600 -1,220 Descending Albuquerque Center
Sun 12:01:21 PM 33.5167 -113.1542 283° West 381 438 40,500 -2,000 Descending Albuquerque Center
Sun 12:02:23 PM 33.5419 -113.2822 283° West 392 451 38,500 -2,098 Descending Albuquerque Center
Sun 12:03:24 PM 33.5681 -113.4219 283° West 367 422 36,200 -2,098 Descending Albuquerque Center
Sun 12:04:26 PM 33.5903 -113.5411 283° West 365 420 34,200 -1,935 Descending Albuquerque Center
Sun 12:05:28 PM 33.6128 -113.6642 282° West 374 430 32,200 -1,854 Descending Albuquerque Center
Sun 12:06:29 PM 33.6347 -113.7825 283° West 377 434 30,400 -1,073 Descending Albuquerque Center
Sun 12:07:31 PM 33.6489 -113.9097 278° West 381 438 30,000 -194 Descending Albuquerque Center
Sun 12:08:33 PM 33.6647 -114.0439 278° West 398 458 30,000  Level Albuquerque Center
Sun 12:09:35 PM 33.6853 -114.2031 279° West 403 464 30,000  Level Albuquerque Center
Sun 12:10:36 PM 33.6997 -114.3397 277° West 403 464 30,000  Level Albuquerque Center
Sun 12:11:38 PM 33.7144 -114.4703 278° West 399 459 30,000  Level Albuquerque Center
Sun 12:11:55 PM 33.7194 -114.4992 282° West 388 447 30,000 -911 Level Los Angeles Center
Sun 12:12:57 PM 33.7336 -114.6233 278° West 378 435 28,800 -1,403 Descending Los Angeles Center
Sun 12:13:59 PM 33.7475 -114.7506 278° West 384 442 27,100 -1,984 Descending Los Angeles Center
Sun 12:15:01 PM 33.7644 -114.9025 278° West 385 443 24,700 -2,081 Descending Los Angeles Center
Sun 12:16:03 PM 33.7789 -115.0331 278° West 393 452 22,800 -1,694 Descending Los Angeles Center
Sun 12:17:05 PM 33.7933 -115.1636 278° West 395 455 21,200 -1,597 Descending Los Angeles Center
Sun 12:18:07 PM 33.8064 -115.2897 277° West 385 443 19,500 -1,645 Descending Los Angeles Center
Sun 12:19:09 PM 33.8194 -115.4128 277° West 377 434 17,800 -1,707 Descending Los Angeles Center
Sun 12:20:10 PM 33.8472 -115.5267 286° West 361 415 16,000 -1,610 Descending Los Angeles Center
Sun 12:21:12 PM 33.8842 -115.6408 291° West 365 420 14,500 -1,456 Descending Los Angeles Center
Sun 12:22:26 PM 33.9131 -115.7736 285° West 339 390 12,700 -1,577 Descending Los Angeles Center
Sun 12:23:29 PM 33.9042 -115.9044 265° West 327 376 10,900 -1,597 Descending Los Angeles Center
Sun 12:24:30 PM 33.9039 -116.0172 270° West 333 383 9,400 -1,463 Descending Los Angeles Center
Sun 12:25:32 PM 33.8906 -116.1047 260° West 297 342 7,900 -1,161 Descending Los Angeles Center
Sun 12:26:34 PM 33.8736 -116.1853 256° West 270 311 7,000 -629 Descending Los Angeles Center
Sun 12:27:36 PM 33.8503 -116.2833 254° West 260 299 6,600 -339 Descending Los Angeles Center
Sun 12:28:38 PM 33.8308 -116.3622 253° West 259 298 6,300 -1,753 Descending Los Angeles Center
Sun 12:30:34 PM 33.7833 -116.4500 237° Southwest 128 147 1,400 -1,831 Descending Southern California TRACON
Sun 12:31:35 PM 33.8000 -116.4833 301° West 122 140 900 -492 Descending Southern California TRACON
Sun 12:33:00 PM 33.8167 -116.5000 256° West  Level FlightAware Approximate
Sun 12:40:00 PM 33.8297 -116.5067 256° West  Level Estimated

Login

Don't have an account? Register now (free) for customized features, flight alerts, and more!